Time;durP1;ratioP1;P1;durP2;ratioP2;P2;SDS_P1;SDS_P2;PMS_P1;PMS_P2;Temp;Humidity;BMP_temperature;BMP_pressure;BME280_temperature;BME280_humidity;BME280_pressure;Samples;Min_cycle;Max_cycle;Signal;HPM_P1;HPM_P2
2023/03/15 00:03:23;;;;;;;0.00;0.00;;;;;;;0.20;85.06;100624.81;10102673;29;20061;-81
2023/03/15 00:08:30;;;;;;;0.10;0.10;;;;;;;0.16;84.89;100634.91;10089365;29;20056;-82
2023/03/15 00:13:37;;;;;;;0.40;0.20;;;;;;;0.13;85.21;100633.88;10087312;29;20060;-82
2023/03/15 00:18:38;;;;;;;0.10;0.10;;;;;;;0.12;85.25;100648.44;10103515;29;20139;-82
2023/03/15 00:23:40;;;;;;;0.35;0.35;;;;;;;0.13;85.72;100644.16;10109501;29;20135;-82
2023/03/15 00:28:42;;;;;;;0.10;0.10;;;;;;;0.19;85.68;100643.63;10093979;29;20045;-82
2023/03/15 00:33:44;;;;;;;0.35;0.35;;;;;;;0.23;85.58;100650.75;10115895;29;20480;-82
2023/03/15 00:38:46;;;;;;;0.20;0.20;;;;;;;0.21;86.01;100655.81;10085884;29;20060;-82
2023/03/15 00:43:53;;;;;;;0.30;0.30;;;;;;;0.22;85.86;100665.28;10088562;29;20064;-82
2023/03/15 00:48:55;;;;;;;0.20;0.20;;;;;;;0.26;85.93;100661.22;10100758;29;20418;-82
2023/03/15 00:53:56;;;;;;;0.45;0.45;;;;;;;0.27;86.01;100670.69;10094805;29;20049;-82
2023/03/15 00:58:58;;;;;;;0.20;0.20;;;;;;;0.20;85.81;100673.75;10087285;29;20962;-82
2023/03/15 01:04:00;;;;;;;2.20;1.17;;;;;;;0.20;86.45;100679.78;10101768;29;20055;-82
2023/03/15 01:09:02;;;;;;;0.55;0.45;;;;;;;0.33;85.88;100691.66;10098447;29;20041;-82
2023/03/15 01:14:08;;;;;;;0.20;0.20;;;;;;;0.36;86.43;100699.53;10103315;29;20131;-82
2023/03/15 01:19:55;;;;;;;0.30;0.30;;;;;;;0.41;86.17;100726.47;10118176;29;20234;-82
2023/03/15 01:25:33;;;;;;;0.10;0.10;;;;;;;0.45;86.23;100724.94;10079187;29;20142;-82
2023/03/15 01:31:18;;;;;;;0.55;0.45;;;;;;;0.48;86.47;100733.75;10107976;29;20049;-82
2023/03/15 01:36:30;;;;;;;;;;;;;;;;;;;;;
2023/03/15 01:41:48;;;;;;;0.10;0.10;;;;;;;0.52;86.86;100748.56;10082510;29;20053;-82
2023/03/15 01:47:18;;;;;;;0.30;0.30;;;;;;;0.56;87.45;100752.22;10102019;29;20060;-82
2023/03/15 01:52:43;;;;;;;3.50;1.20;;;;;;;0.59;87.49;100756.69;10027859;29;20137;-82
2023/03/15 01:58:16;;;;;;;2.05;1.40;;;;;;;0.60;88.04;100758.44;10039221;29;20054;-82
2023/03/15 02:04:08;;;;;;;0.40;0.40;;;;;;;0.61;88.12;100766.25;10022119;29;20065;-82
2023/03/15 02:09:40;;;;;;;0.10;0.10;;;;;;;0.66;88.48;100774.22;10006051;29;20143;-82
2023/03/15 02:14:57;;;;;;;0.20;0.20;;;;;;;0.70;88.76;100776.19;10024546;29;20443;-82
2023/03/15 02:20:19;;;;;;;0.30;0.30;;;;;;;0.78;88.73;100774.03;10028899;29;20514;-82
2023/03/15 02:25:35;;;;;;;0.70;0.35;;;;;;;0.81;88.77;100779.38;10085146;29;20113;-82
2023/03/15 02:31:14;;;;;;;0.10;0.10;;;;;;;0.82;88.94;100787.19;10099507;29;20057;-82
2023/03/15 02:37:09;;;;;;;0.20;0.20;;;;;;;0.86;89.37;100791.72;10076835;29;20080;-82
2023/03/15 02:42:33;;;;;;;0.17;0.17;;;;;;;0.87;89.34;100793.50;10105246;29;20052;-82
2023/03/15 02:48:09;;;;;;;2.17;0.63;;;;;;;0.87;89.50;100801.25;10093327;29;20127;-82
2023/03/15 03:00:13;;;;;;;3.72;1.20;;;;;;;0.84;89.60;100832.00;10043642;29;20045;-82
2023/03/15 03:05:39;;;;;;;0.20;0.20;;;;;;;0.84;89.54;100839.75;10027364;29;20065;-82
2023/03/15 03:11:03;;;;;;;1.95;0.50;;;;;;;0.81;89.93;100856.72;10057465;29;20061;-82
2023/03/15 03:16:25;;;;;;;0.10;0.10;;;;;;;0.81;90.09;100867.00;10025104;29;20050;-82
2023/03/15 03:21:31;;;;;;;0.10;0.10;;;;;;;0.80;90.32;100873.88;10047185;29;20067;-82
2023/03/15 03:26:47;;;;;;;1.65;0.85;;;;;;;0.77;90.65;100896.03;10041416;29;20076;-82
2023/03/15 03:32:22;;;;;;;0.20;0.20;;;;;;;0.78;90.66;100898.69;10093808;29;20459;-82
2023/03/15 03:37:46;;;;;;;0.85;0.73;;;;;;;0.74;90.89;100914.75;10088918;29;20434;-82
2023/03/15 03:43:12;;;;;;;0.40;0.40;;;;;;;0.76;91.13;100914.84;10084789;29;20055;-82
2023/03/15 03:48:30;;;;;;;0.10;0.10;;;;;;;0.69;91.16;100921.31;10092584;29;20049;-82
2023/03/15 03:54:01;;;;;;;0.20;0.20;;;;;;;0.62;91.08;100925.25;10092332;29;20056;-82
2023/03/15 03:59:19;;;;;;;0.20;0.20;;;;;;;0.51;91.50;100934.91;10099793;29;20579;-82
2023/03/15 04:04:49;;;;;;;0.30;0.30;;;;;;;0.43;91.69;100950.69;10117797;29;20086;-82
2023/03/15 04:10:05;;;;;;;0.20;0.20;;;;;;;0.33;91.46;100956.97;10075446;29;20108;-82
2023/03/15 04:15:17;;;;;;;0.47;0.40;;;;;;;0.25;91.40;100965.91;10076309;29;20061;-82
2023/03/15 04:26:40;;;;;;;0.50;0.35;;;;;;;-0.01;91.83;100990.94;10097649;29;20424;-82
2023/03/15 04:32:16;;;;;;;0.13;0.13;;;;;;;-0.07;91.61;101004.31;10103940;29;20087;-81
2023/03/15 04:37:52;;;;;;;0.13;0.13;;;;;;;-0.13;91.72;101021.06;10092338;29;20116;-82
2023/03/15 04:43:17;;;;;;;0.20;0.20;;;;;;;-0.22;91.59;101023.94;10121788;29;20104;-81
2023/03/15 04:48:46;;;;;;;2.65;1.00;;;;;;;-0.29;91.90;101016.63;10103503;29;20040;-81
2023/03/15 04:54:38;;;;;;;0.20;0.20;;;;;;;-0.35;92.12;101017.09;10110547;29;20064;-82
2023/03/15 05:06:20;;;;;;;1.65;0.50;;;;;;;-0.49;91.92;101026.50;10108246;29;20063;-82
2023/03/15 05:12:13;;;;;;;0.85;0.82;;;;;;;-0.61;92.20;101039.44;10096552;29;20049;-82
2023/03/15 05:18:07;;;;;;;0.17;0.17;;;;;;;-0.70;92.34;101059.41;10093564;29;20819;-82
2023/03/15 05:23:40;;;;;;;0.20;0.20;;;;;;;-0.75;92.67;101066.81;10113886;29;20565;-82
2023/03/15 05:29:35;;;;;;;0.73;0.73;;;;;;;-0.80;92.53;101069.88;10063641;29;20094;-82
2023/03/15 05:35:21;;;;;;;0.20;0.20;;;;;;;-0.83;92.62;101082.53;10082146;29;20049;-82
2023/03/15 05:41:36;;;;;;;0.20;0.20;;;;;;;-0.88;92.83;101101.91;10116000;29;20040;-82
2023/03/15 05:47:45;;;;;;;0.10;0.10;;;;;;;-0.90;93.03;101105.25;10107900;29;20049;-82
2023/03/15 05:53:51;;;;;;;0.10;0.10;;;;;;;-0.86;93.10;101123.47;10110489;29;20549;-82
2023/03/15 05:59:44;;;;;;;0.13;0.13;;;;;;;-0.84;93.10;101137.31;10054663;29;20163;-82
2023/03/15 06:05:32;;;;;;;4.82;0.40;;;;;;;-0.84;93.31;101137.31;10098522;29;20620;-82
2023/03/15 06:10:56;;;;;;;0.25;0.25;;;;;;;-0.79;93.37;101147.13;10109915;29;20052;-82
2023/03/15 06:16:12;;;;;;;0.10;0.10;;;;;;;-0.72;93.46;101153.59;10103971;29;20564;-83
2023/03/15 06:21:35;;;;;;;0.55;0.55;;;;;;;-0.67;93.62;101151.34;10097940;29;20049;-82
2023/03/15 06:27:06;;;;;;;0.10;0.10;;;;;;;-0.56;93.64;101153.81;10108523;29;20197;-83
2023/03/15 06:32:27;;;;;;;0.75;0.38;;;;;;;-0.49;93.74;101173.16;10090230;29;20056;-81
2023/03/15 06:37:51;;;;;;;0.47;0.30;;;;;;;-0.44;93.54;101183.75;10090953;29;20243;-82
2023/03/15 06:43:22;;;;;;;0.50;0.50;;;;;;;-0.38;93.57;101195.34;10103939;29;20056;-82
2023/03/15 06:48:58;;;;;;;0.20;0.20;;;;;;;-0.34;93.66;101214.47;10078373;29;20052;-82
2023/03/15 06:54:11;;;;;;;0.30;0.25;;;;;;;-0.32;93.74;101218.03;10120450;29;20159;-82
2023/03/15 06:59:57;;;;;;;;;;;;;;;;;;;;;
2023/03/15 07:05:10;;;;;;;0.20;0.20;;;;;;;-0.14;93.54;101241.53;10109309;29;20053;-82
2023/03/15 07:10:22;;;;;;;1.40;0.52;;;;;;;-0.08;93.19;101244.53;10106125;29;20063;-82
2023/03/15 07:15:33;;;;;;;0.10;0.10;;;;;;;0.06;93.04;101258.34;10109070;29;20132;-82
2023/03/15 07:20:41;;;;;;;5.30;0.82;;;;;;;0.22;93.05;101265.38;10115346;29;20067;-82
2023/03/15 07:26:11;;;;;;;0.17;0.17;;;;;;;0.40;92.71;101269.97;10123080;29;20593;-82
2023/03/15 07:32:14;;;;;;;0.20;0.20;;;;;;;0.56;92.09;101272.78;10109566;29;20581;-82
2023/03/15 07:37:40;;;;;;;0.10;0.10;;;;;;;0.95;91.82;101283.00;10087932;29;20086;-81
2023/03/15 07:42:57;;;;;;;0.20;0.20;;;;;;;2.24;91.26;101290.88;10109201;29;20148;-81
2023/03/15 07:48:17;;;;;;;1.75;0.65;;;;;;;3.66;89.80;101287.50;10093053;29;20132;-82
2023/03/15 07:53:20;;;;;;;0.40;0.40;;;;;;;4.72;87.27;101299.81;10111532;29;20505;-81
2023/03/15 07:58:30;;;;;;;2.08;0.50;;;;;;;4.72;87.27;101299.81;10099437;29;20559;-82
2023/03/15 08:03:35;;;;;;;0.32;0.20;;;;;;;5.59;81.32;101310.84;10114977;29;20053;-82
2023/03/15 08:08:40;;;;;;;0.30;0.30;;;;;;;6.07;79.01;101315.59;10097582;29;20534;-82
2023/03/15 08:13:52;;;;;;;0.98;0.38;;;;;;;6.07;79.01;101315.59;10093283;29;20053;-82
2023/03/15 08:19:09;;;;;;;0.95;0.50;;;;;;;6.31;74.81;101318.38;10075824;29;20178;-82
2023/03/15 08:24:33;;;;;;;;;;;;;;;;;;;;;
2023/03/15 08:29:43;;;;;;;0.75;0.30;;;;;;;6.26;73.27;101348.50;10078165;29;20679;-82
2023/03/15 08:35:01;;;;;;;0.68;0.63;;;;;;;6.22;72.11;101353.50;10087629;29;20529;-82
2023/03/15 08:40:09;;;;;;;0.10;0.10;;;;;;;6.35;71.51;101374.00;10090374;29;20061;-81
2023/03/15 08:45:32;;;;;;;8.57;0.77;;;;;;;6.61;71.18;101382.06;10100739;29;20049;-81
2023/03/15 08:51:01;;;;;;;1.35;0.43;;;;;;;6.68;70.43;101379.78;10095067;29;20057;-80
2023/03/15 08:56:05;;;;;;;;;;;;;;;6.54;69.93;101389.63;10114392;29;20045;-81
2023/03/15 09:01:18;;;;;;;0.43;0.25;;;;;;;6.68;69.73;101399.69;10083890;29;19969;-81
2023/03/15 09:06:27;;;;;;;1.00;0.30;;;;;;;7.21;69.60;101398.44;10110237;29;20053;-81
2023/03/15 09:11:32;;;;;;;1.40;0.82;;;;;;;7.47;68.70;101405.53;10077381;29;20068;-81
2023/03/15 09:16:36;;;;;;;0.20;0.20;;;;;;;7.64;67.77;101406.19;10112398;29;20052;-84
2023/03/15 09:21:38;;;;;;;0.32;0.22;;;;;;;7.45;66.48;101413.28;10108104;29;20056;-81
2023/03/15 09:26:39;;;;;;;0.55;0.40;;;;;;;7.39;66.22;101413.94;10126536;29;20071;-79
2023/03/15 09:31:41;;;;;;;3.22;0.73;;;;;;;7.63;66.30;101422.66;10095107;29;20045;-80
2023/03/15 09:36:43;;;;;;;0.88;0.47;;;;;;;7.68;65.36;101428.94;10102111;29;20097;-80
2023/03/15 09:41:55;;;;;;;2.38;1.30;;;;;;;7.81;65.03;101432.91;10095396;29;20053;-82
2023/03/15 09:47:39;;;;;;;0.30;0.30;;;;;;;8.12;64.43;101435.88;10093932;29;20053;-84
2023/03/15 09:53:11;;;;;;;4.00;0.73;;;;;;;7.82;63.49;101446.03;10146639;29;20064;-83
2023/03/15 09:58:33;;;;;;;1.15;0.45;;;;;;;6.34;63.96;101530.91;10108842;29;20053;-82
2023/03/15 10:04:04;;;;;;;0.10;0.10;;;;;;;3.28;67.69;101548.66;10099462;29;20392;-82
2023/03/15 10:16:52;;;;;;;0.10;0.10;;;;;;;0.89;75.76;101569.72;10051390;29;20053;-84
2023/03/15 10:22:13;;;;;;;0.17;0.13;;;;;;;0.63;77.77;101575.63;10026116;29;20114;-83
2023/03/15 10:27:31;;;;;;;1.45;0.98;;;;;;;0.60;79.58;101562.53;10050440;29;20650;-85
2023/03/15 10:32:43;;;;;;;0.20;0.20;;;;;;;0.62;81.02;101545.50;10021712;29;20108;-86
2023/03/15 10:38:25;;;;;;;0.30;0.30;;;;;;;0.84;82.39;101545.28;10041235;29;20190;-89
2023/03/15 10:43:36;;;;;;;0.10;0.10;;;;;;;1.24;83.17;101530.81;10059718;29;20048;-89
2023/03/15 10:49:11;;;;;;;1.50;0.30;;;;;;;1.62;84.12;101533.22;10103999;29;20398;-90
2023/03/15 10:54:18;;;;;;;0.20;0.20;;;;;;;1.93;84.28;101543.84;10106224;29;20081;-88
2023/03/15 10:59:26;;;;;;;0.30;0.30;;;;;;;2.00;84.46;101604.53;10079165;29;20771;-88
2023/03/15 11:04:30;;;;;;;0.43;0.32;;;;;;;1.89;84.15;101611.59;10109424;29;20073;-87
2023/03/15 11:09:43;;;;;;;0.30;0.30;;;;;;;1.62;84.03;101610.69;10078469;29;20061;-88
2023/03/15 11:14:48;;;;;;;0.10;0.10;;;;;;;1.76;84.53;101622.84;10087772;29;20092;-90
2023/03/15 11:19:55;;;;;;;0.20;0.20;;;;;;;1.90;84.72;101624.63;10090618;29;20048;-86
2023/03/15 11:24:57;;;;;;;0.10;0.10;;;;;;;2.08;85.36;101629.22;10089376;29;20056;-86
2023/03/15 11:30:56;;;;;;;0.30;0.30;;;;;;;2.19;85.49;101629.91;10111005;29;20728;-87
2023/03/15 11:36:07;;;;;;;0.40;0.40;;;;;;;2.29;85.75;101640.91;10065160;29;20108;-87
2023/03/15 11:41:28;;;;;;;0.20;0.20;;;;;;;2.42;85.94;101641.72;10089841;29;20052;-88
2023/03/15 11:46:48;;;;;;;0.10;0.10;;;;;;;2.44;85.93;101651.34;10091356;29;20148;-87
2023/03/15 11:52:44;;;;;;;0.10;0.10;;;;;;;2.54;86.16;101662.25;10103518;29;20144;-89
2023/03/15 12:11:44;;;;;;;0.10;0.10;;;;;;;1.89;86.33;101622.84;10253909;23;20782;-89
2023/03/15 12:17:41;;;;;;;0.25;0.25;;;;;;;2.38;85.97;101637.16;10118044;29;20057;-89
2023/03/15 12:29:35;;;;;;;1.75;0.65;;;;;;;2.61;85.12;101597.22;9995408;29;20046;-88
2023/03/15 12:35:15;;;;;;;0.30;0.22;;;;;;;3.08;84.62;101590.56;10020300;29;20600;-88
2023/03/15 12:41:15;;;;;;;;;;;;;;;;;;;;;
2023/03/15 13:13:32;;;;;;;2.85;0.25;;;;;;;5.00;80.03;101589.25;10071795;29;20093;-87
2023/03/15 13:19:24;;;;;;;0.10;0.10;;;;;;;5.28;79.47;101592.47;9982077;29;20050;-87
2023/03/15 13:24:48;;;;;;;0.43;0.28;;;;;;;5.38;78.81;101580.84;10003205;29;20053;-88
2023/03/15 13:29:52;;;;;;;0.60;0.60;;;;;;;5.38;78.22;101579.97;10002027;29;20087;-87
2023/03/15 13:35:10;;;;;;;2.70;0.60;;;;;;;5.47;77.66;101583.03;10003550;29;20440;-87
2023/03/15 13:40:18;;;;;;;0.50;0.25;;;;;;;5.61;76.73;101584.59;9984709;29;20201;-87
2023/03/15 13:45:25;;;;;;;2.17;0.38;;;;;;;5.61;76.32;101592.38;9988966;29;20114;-87
2023/03/15 13:50:30;;;;;;;1.27;0.75;;;;;;;5.61;75.36;101596.69;9986310;29;20058;-86
2023/03/15 13:55:34;;;;;;;1.13;0.60;;;;;;;5.84;75.12;101600.47;10003034;29;20066;-87
2023/03/15 14:00:36;;;;;;;0.30;0.30;;;;;;;5.81;74.49;101598.59;10004361;29;20050;-86
2023/03/15 14:05:52;;;;;;;1.65;0.40;;;;;;;6.15;74.57;101610.66;10013173;29;20056;-87
2023/03/15 14:59:30;;;;;;;0.57;0.30;;;;;;;6.42;70.35;101617.13;11697317;23;20063;-88
2023/03/15 15:04:41;;;;;;;0.17;0.17;;;;;;;6.32;69.71;101618.38;10096243;29;20436;-88
2023/03/15 15:09:48;;;;;;;0.55;0.40;;;;;;;6.34;69.67;101621.97;10092800;29;20123;-86
2023/03/15 15:14:49;;;;;;;0.70;0.70;;;;;;;6.54;69.56;101621.19;10092187;29;20045;-88
2023/03/15 15:19:51;;;;;;;1.55;0.63;;;;;;;6.71;68.22;101626.25;10105377;29;20115;-87
2023/03/15 15:24:52;;;;;;;0.20;0.20;;;;;;;6.78;65.93;101625.75;10112835;29;20152;-86
2023/03/15 15:29:54;;;;;;;0.30;0.20;;;;;;;6.86;65.07;101626.09;10114063;29;20049;-85
2023/03/15 15:34:58;;;;;;;1.75;0.80;;;;;;;6.85;64.12;101626.94;10111082;29;20052;-86
2023/03/15 15:40:01;;;;;;;5.22;0.65;;;;;;;6.87;63.28;101630.47;10094488;29;20101;-84
2023/03/15 15:45:09;;;;;;;2.83;0.80;;;;;;;6.84;62.33;101630.34;10093429;29;20053;-85
2023/03/15 15:50:16;;;;;;;1.93;1.10;;;;;;;6.82;61.66;101625.06;10106233;29;20060;-85
2023/03/15 15:55:23;;;;;;;4.63;1.13;;;;;;;6.70;61.62;101624.50;10123278;29;20065;-85
2023/03/15 16:00:26;;;;;;;0.80;0.60;;;;;;;6.68;61.33;101623.53;10126538;29;20084;-84
2023/03/15 16:05:30;;;;;;;0.47;0.22;;;;;;;6.57;60.99;101637.75;10122324;29;20443;-84
2023/03/15 16:10:34;;;;;;;0.82;0.30;;;;;;;6.49;60.45;101637.41;10120815;29;20052;-84
2023/03/15 16:15:36;;;;;;;0.35;0.35;;;;;;;6.42;60.10;101630.13;10115432;29;20144;-83
2023/03/15 16:20:41;;;;;;;0.50;0.50;;;;;;;6.33;60.18;101635.78;10131762;29;20053;-84
2023/03/15 16:25:46;;;;;;;0.63;0.52;;;;;;;6.28;59.70;101639.88;10128883;29;20143;-84
2023/03/15 16:30:48;;;;;;;0.88;0.45;;;;;;;6.18;59.45;101644.63;10121453;29;20338;-83
2023/03/15 16:35:52;;;;;;;2.30;0.43;;;;;;;6.06;60.02;101651.81;10133435;29;20120;-83
2023/03/15 16:40:53;;;;;;;0.10;0.10;;;;;;;5.87;61.16;101644.81;10131965;29;20069;-83
2023/03/15 16:45:55;;;;;;;0.13;0.13;;;;;;;5.70;62.25;101656.94;10129978;29;20095;-83
2023/03/15 16:50:56;;;;;;;0.45;0.30;;;;;;;5.47;63.27;101656.63;10119431;29;20072;-84
2023/03/15 16:55:58;;;;;;;2.70;1.00;;;;;;;5.30;64.12;101657.50;10139416;29;20107;-82
2023/03/15 17:01:00;;;;;;;1.10;0.52;;;;;;;5.13;64.54;101673.06;10145457;29;20068;-83
2023/03/15 17:06:02;;;;;;;0.10;0.10;;;;;;;4.99;65.34;101678.31;10133290;29;20064;-83
2023/03/15 17:11:04;;;;;;;2.25;1.40;;;;;;;4.81;66.27;101679.09;10134793;29;20049;-84
2023/03/15 17:16:10;;;;;;;1.33;0.68;;;;;;;4.67;66.70;101680.94;10142597;29;20052;-85
2023/03/15 17:21:14;;;;;;;2.97;0.45;;;;;;;4.53;67.29;101685.34;10130058;29;20076;-84
2023/03/15 17:26:18;;;;;;;1.40;0.75;;;;;;;4.33;67.89;101696.31;10152682;29;20085;-85
2023/03/15 17:31:24;;;;;;;0.65;0.50;;;;;;;4.14;68.54;101691.75;10150525;29;20124;-84
2023/03/15 17:36:31;;;;;;;0.52;0.50;;;;;;;3.93;69.07;101699.19;10131849;29;20060;-85
2023/03/15 17:41:37;;;;;;;6.85;0.35;;;;;;;3.71;69.71;101700.53;10145600;29;20077;-84
2023/03/15 17:46:39;;;;;;;0.40;0.40;;;;;;;3.49;70.64;101703.50;10152552;29;20083;-84
2023/03/15 17:51:41;;;;;;;0.75;0.52;;;;;;;3.33;71.12;101710.34;10143920;29;20053;-84
2023/03/15 17:56:42;;;;;;;0.15;0.15;;;;;;;3.08;71.88;101714.78;10141339;29;20063;-84
2023/03/15 18:01:47;;;;;;;0.57;0.47;;;;;;;2.87;72.43;101719.50;10116574;29;20112;-83
2023/03/15 18:06:49;;;;;;;0.43;0.30;;;;;;;2.63;73.23;101710.31;10108889;29;20056;-83
2023/03/15 18:11:50;;;;;;;0.75;0.55;;;;;;;2.40;74.00;101715.69;10125956;29;20059;-83
2023/03/15 18:16:52;;;;;;;1.40;0.77;;;;;;;2.20;74.69;101715.28;10110781;29;20063;-83
2023/03/15 18:21:54;;;;;;;0.98;0.60;;;;;;;2.02;75.14;101724.41;10106728;29;20049;-83
2023/03/15 18:26:55;;;;;;;5.43;0.52;;;;;;;1.85;76.17;101725.88;10089273;29;20063;-84
2023/03/15 18:31:57;;;;;;;0.45;0.45;;;;;;;1.64;76.29;101739.09;10118578;29;20053;-83
2023/03/15 18:36:59;;;;;;;2.72;1.25;;;;;;;1.48;77.19;101751.75;10113842;29;20049;-84
2023/03/15 18:42:01;;;;;;;0.13;0.13;;;;;;;1.35;77.52;101744.81;10135671;29;20063;-83
2023/03/15 18:47:03;;;;;;;0.73;0.35;;;;;;;1.18;77.82;101762.59;10143560;29;20128;-83
2023/03/15 18:52:12;;;;;;;0.35;0.32;;;;;;;1.04;78.22;101765.91;10121768;29;20045;-82
2023/03/15 18:57:14;;;;;;;0.17;0.17;;;;;;;0.90;78.91;101759.72;10125484;29;20060;-83
2023/03/15 19:02:16;;;;;;;0.47;0.47;;;;;;;0.77;79.01;101768.28;10135620;29;20518;-83
2023/03/15 19:07:17;;;;;;;2.17;0.65;;;;;;;0.65;79.77;101776.00;10125431;29;20093;-82
2023/03/15 19:12:19;;;;;;;1.50;1.27;;;;;;;0.60;79.75;101773.88;10119274;29;20108;-83
2023/03/15 19:17:21;;;;;;;0.98;0.88;;;;;;;0.50;80.21;101785.22;10116463;29;20382;-82
2023/03/15 19:22:22;;;;;;;1.48;1.25;;;;;;;0.38;80.22;101785.19;10139208;29;20045;-83
2023/03/15 19:27:24;;;;;;;0.77;0.73;;;;;;;0.29;81.04;101782.81;10133271;29;20057;-83
2023/03/15 19:32:28;;;;;;;5.93;1.45;;;;;;;0.19;80.63;101784.59;10105406;29;20124;-83
2023/03/15 19:37:30;;;;;;;3.35;2.28;;;;;;;0.08;81.36;101787.28;10135513;29;20057;-83
2023/03/15 19:42:31;;;;;;;2.60;1.92;;;;;;;0.00;81.54;101788.38;10144196;29;20063;-82
2023/03/15 19:47:33;;;;;;;1.10;1.00;;;;;;;-0.08;82.05;101792.03;10133975;29;20076;-83
2023/03/15 19:52:37;;;;;;;1.50;1.10;;;;;;;-0.28;82.02;101795.69;10143485;29;20064;-83
2023/03/15 19:57:39;;;;;;;3.10;2.50;;;;;;;-0.37;82.53;101781.31;10134749;29;20061;-82
2023/03/15 20:02:41;;;;;;;1.95;0.90;;;;;;;-0.45;82.60;101781.47;10138380;29;20061;-82
2023/03/15 20:07:44;;;;;;;1.15;1.05;;;;;;;-0.57;83.21;101792.63;10130206;29;20053;-82
2023/03/15 20:12:46;;;;;;;1.60;1.17;;;;;;;-0.62;83.07;101793.03;10112245;29;20068;-82
2023/03/15 20:17:48;;;;;;;1.55;1.45;;;;;;;-0.73;83.62;101793.09;10120969;29;20048;-82
2023/03/15 20:22:50;;;;;;;1.52;1.38;;;;;;;-0.82;83.52;101800.09;10129771;29;20142;-82
2023/03/15 20:27:51;;;;;;;0.68;0.68;;;;;;;-0.90;83.61;101799.50;10104916;29;20089;-82
2023/03/15 20:32:53;;;;;;;0.50;0.50;;;;;;;-0.97;84.23;101793.75;10119889;29;20072;-82
2023/03/15 20:37:55;;;;;;;0.47;0.47;;;;;;;-1.06;84.23;101799.03;10125370;29;20056;-82
2023/03/15 20:42:57;;;;;;;0.40;0.40;;;;;;;-1.17;84.68;101790.47;10126652;29;20140;-82
2023/03/15 20:47:59;;;;;;;0.40;0.40;;;;;;;-1.24;84.46;101801.03;10117414;29;20248;-81
2023/03/15 20:53:02;;;;;;;0.35;0.35;;;;;;;-1.25;85.04;101797.56;10110700;29;20045;-82
2023/03/15 20:58:04;;;;;;;1.80;0.90;;;;;;;-1.27;85.04;101799.09;10095258;29;20116;-81
2023/03/15 21:03:06;;;;;;;0.75;0.75;;;;;;;-1.34;85.26;101801.06;10101174;29;20342;-81
2023/03/15 21:08:08;;;;;;;0.50;0.50;;;;;;;-1.38;85.62;101799.91;10113745;29;20057;-82
2023/03/15 21:13:10;;;;;;;4.00;2.72;;;;;;;-1.43;85.72;101801.19;10138094;29;20095;-81
2023/03/15 21:18:13;;;;;;;3.30;1.30;;;;;;;-1.50;85.55;101793.75;10132484;29;20045;-81
2023/03/15 21:23:15;;;;;;;2.45;1.73;;;;;;;-1.61;85.63;101803.16;10128258;29;20111;-81
2023/03/15 21:28:16;;;;;;;1.35;0.77;;;;;;;-1.65;85.68;101809.72;10139964;29;20055;-81
2023/03/15 21:33:20;;;;;;;5.03;3.28;;;;;;;-1.76;85.75;101805.34;10127575;29;20060;-82
2023/03/15 21:38:21;;;;;;;0.88;0.82;;;;;;;-1.81;85.89;101807.53;10132205;29;20217;-81
2023/03/15 21:43:24;;;;;;;0.93;0.80;;;;;;;-1.87;86.19;101812.16;10133646;29;20057;-82
2023/03/15 21:48:26;;;;;;;0.75;0.75;;;;;;;-1.96;86.17;101811.41;10136851;29;20241;-81
2023/03/15 21:53:29;;;;;;;3.22;2.55;;;;;;;-1.99;86.14;101819.75;10130621;29;20057;-81
2023/03/15 21:58:32;;;;;;;2.92;0.98;;;;;;;-2.04;86.60;101820.13;10121920;29;20081;-82
2023/03/15 22:03:35;;;;;;;0.65;0.63;;;;;;;-2.09;86.37;101814.59;10139489;29;20084;-82
2023/03/15 22:08:37;;;;;;;1.98;1.88;;;;;;;-2.16;86.56;101817.44;10128897;29;20120;-82
2023/03/15 22:13:40;;;;;;;0.80;0.80;;;;;;;-2.19;87.06;101812.00;10146859;29;20147;-82
2023/03/15 22:18:42;;;;;;;0.25;0.25;;;;;;;-2.25;86.94;101822.69;10136646;29;20561;-81
2023/03/15 22:23:44;;;;;;;1.48;0.93;;;;;;;-2.30;86.93;101808.53;10145079;29;20482;-81
2023/03/15 22:28:45;;;;;;;2.25;2.05;;;;;;;-2.30;87.06;101816.25;10141165;29;20143;-82
2023/03/15 22:33:47;;;;;;;0.65;0.63;;;;;;;-2.26;87.27;101807.16;10124314;29;20066;-82
2023/03/15 22:38:49;;;;;;;0.30;0.30;;;;;;;-2.26;87.32;101804.59;10125738;29;20155;-82
2023/03/15 22:43:54;;;;;;;1.10;0.85;;;;;;;-2.29;87.65;101807.78;10132593;29;20535;-81
2023/03/15 22:48:55;;;;;;;0.32;0.32;;;;;;;-2.36;87.46;101813.16;10130763;29;20068;-82
2023/03/15 22:53:57;;;;;;;0.35;0.35;;;;;;;-2.43;87.71;101806.63;10134134;29;20120;-81
2023/03/15 22:58:58;;;;;;;1.17;0.73;;;;;;;-2.45;87.98;101812.38;10109193;29;20067;-81
2023/03/15 23:04:00;;;;;;;0.57;0.57;;;;;;;-2.53;87.71;101811.72;10141739;29;20393;-81
2023/03/15 23:09:02;;;;;;;1.15;0.93;;;;;;;-2.54;87.90;101803.13;10144326;29;20049;-81
2023/03/15 23:14:06;;;;;;;1.85;1.15;;;;;;;-2.56;87.57;101804.66;10123076;29;20048;-81
2023/03/15 23:19:09;;;;;;;0.25;0.25;;;;;;;-2.62;87.60;101809.25;10127219;29;20053;-81
2023/03/15 23:24:12;;;;;;;0.40;0.40;;;;;;;-2.58;87.62;101806.19;10124812;29;20621;-81
2023/03/15 23:29:14;;;;;;;0.68;0.40;;;;;;;-2.55;88.15;101811.59;10135267;29;20048;-81
2023/03/15 23:34:16;;;;;;;1.23;1.10;;;;;;;-2.59;87.80;101814.66;10126540;29;20080;-82
2023/03/15 23:39:18;;;;;;;0.55;0.55;;;;;;;-2.58;88.11;101820.66;10143434;29;20052;-81
2023/03/15 23:44:19;;;;;;;0.40;0.40;;;;;;;-2.60;87.93;101824.78;10139819;29;20063;-81
2023/03/15 23:49:25;;;;;;;0.68;0.63;;;;;;;-2.49;88.04;101824.03;10136464;29;20064;-82
2023/03/15 23:54:26;;;;;;;0.20;0.20;;;;;;;-2.45;88.16;101818.38;10121090;29;20057;-82
2023/03/15 23:59:28;;;;;;;0.20;0.20;;;;;;;-2.39;88.08;101811.22;10106718;29;20212;-82
